sensor_id;sensor_type;location;lat;lon;timestamp;pressure;altitude;pressure_sealevel;temperature;humidity
29215;BME280;16252;49.816;7.964;2023-09-07T00:01:09;100361.84;;;20.99;48.38
29215;BME280;16252;49.816;7.964;2023-09-07T00:03:34;100348.63;;;20.88;48.75
29215;BME280;16252;49.816;7.964;2023-09-07T00:05:59;100325.75;;;20.74;48.10
29215;BME280;16252;49.816;7.964;2023-09-07T00:08:25;100345.09;;;20.79;48.26
29215;BME280;16252;49.816;7.964;2023-09-07T00:10:51;100365.63;;;20.90;48.03
29215;BME280;16252;49.816;7.964;2023-09-07T00:13:16;100377.66;;;20.95;48.17
29215;BME280;16252;49.816;7.964;2023-09-07T00:15:42;100334.44;;;20.61;48.14
29215;BME280;16252;49.816;7.964;2023-09-07T00:18:08;100317.47;;;20.51;48.31
29215;BME280;16252;49.816;7.964;2023-09-07T00:20:33;100325.94;;;20.48;48.25
29215;BME280;16252;49.816;7.964;2023-09-07T00:22:59;100302.22;;;20.33;48.53
29215;BME280;16252;49.816;7.964;2023-09-07T00:25:26;100365.00;;;20.63;48.79
29215;BME280;16252;49.816;7.964;2023-09-07T00:27:51;100317.84;;;20.31;48.61
29215;BME280;16252;49.816;7.964;2023-09-07T00:30:16;100343.28;;;20.47;49.01
29215;BME280;16252;49.816;7.964;2023-09-07T00:32:41;100347.34;;;20.43;49.20
29215;BME280;16252;49.816;7.964;2023-09-07T00:35:08;100323.28;;;20.23;49.07
29215;BME280;16252;49.816;7.964;2023-09-07T00:37:33;100359.06;;;20.51;48.84
29215;BME280;16252;49.816;7.964;2023-09-07T00:39:59;100349.56;;;20.39;48.83
29215;BME280;16252;49.816;7.964;2023-09-07T00:42:24;100365.53;;;20.42;48.67
29215;BME280;16252;49.816;7.964;2023-09-07T00:44:49;100345.84;;;20.32;49.05
29215;BME280;16252;49.816;7.964;2023-09-07T00:47:15;100337.03;;;20.22;49.05
29215;BME280;16252;49.816;7.964;2023-09-07T00:49:41;100346.00;;;20.30;49.15
29215;BME280;16252;49.816;7.964;2023-09-07T00:52:08;100349.25;;;20.26;49.18
29215;BME280;16252;49.816;7.964;2023-09-07T00:54:34;100338.22;;;20.19;49.45
29215;BME280;16252;49.816;7.964;2023-09-07T00:56:59;100366.88;;;20.38;49.43
29215;BME280;16252;49.816;7.964;2023-09-07T00:59:25;100296.81;;;19.92;49.22
29215;BME280;16252;49.816;7.964;2023-09-07T01:01:51;100354.38;;;20.21;49.48
29215;BME280;16252;49.816;7.964;2023-09-07T01:04:16;100344.84;;;20.17;49.55
29215;BME280;16252;49.816;7.964;2023-09-07T01:06:45;100338.22;;;20.11;49.52
29215;BME280;16252;49.816;7.964;2023-09-07T01:09:19;100358.41;;;20.25;49.56
29215;BME280;16252;49.816;7.964;2023-09-07T01:11:46;100335.34;;;20.04;49.59
29215;BME280;16252;49.816;7.964;2023-09-07T01:14:11;100310.75;;;19.81;49.68
29215;BME280;16252;49.816;7.964;2023-09-07T01:16:37;100338.91;;;19.97;49.65
29215;BME280;16252;49.816;7.964;2023-09-07T01:19:08;100345.53;;;20.02;49.82
29215;BME280;16252;49.816;7.964;2023-09-07T01:21:36;100307.53;;;19.78;49.64
29215;BME280;16252;49.816;7.964;2023-09-07T01:24:09;100350.09;;;20.10;49.76
29215;BME280;16252;49.816;7.964;2023-09-07T01:26:36;100367.59;;;20.07;49.98
29215;BME280;16252;49.816;7.964;2023-09-07T01:29:04;100334.47;;;19.87;50.17
29215;BME280;16252;49.816;7.964;2023-09-07T01:31:30;100334.47;;;19.87;50.35
29215;BME280;16252;49.816;7.964;2023-09-07T01:33:55;100353.81;;;19.92;50.38
29215;BME280;16252;49.816;7.964;2023-09-07T01:36:20;100311.72;;;19.64;50.17
29215;BME280;16252;49.816;7.964;2023-09-07T01:38:46;100323.97;;;19.76;50.21
29215;BME280;16252;49.816;7.964;2023-09-07T01:41:11;100346.03;;;19.81;50.07
29215;BME280;16252;49.816;7.964;2023-09-07T01:43:37;100328.03;;;19.72;50.22
29215;BME280;16252;49.816;7.964;2023-09-07T01:46:03;100353.34;;;19.89;50.12
29215;BME280;16252;49.816;7.964;2023-09-07T01:48:28;100331.78;;;19.71;50.17
29215;BME280;16252;49.816;7.964;2023-09-07T01:50:53;100343.81;;;19.68;50.05
29215;BME280;16252;49.816;7.964;2023-09-07T01:53:19;100363.34;;;19.80;50.52
29215;BME280;16252;49.816;7.964;2023-09-07T01:55:45;100334.44;;;19.63;50.43
29215;BME280;16252;49.816;7.964;2023-09-07T01:58:10;100336.31;;;19.62;50.09
29215;BME280;16252;49.816;7.964;2023-09-07T02:00:39;100322.72;;;19.54;50.14
29215;BME280;16252;49.816;7.964;2023-09-07T02:03:05;100284.53;;;19.23;49.98
29215;BME280;16252;49.816;7.964;2023-09-07T02:05:30;100302.69;;;19.31;50.11
29215;BME280;16252;49.816;7.964;2023-09-07T02:07:57;100299.13;;;19.30;49.98
29215;BME280;16252;49.816;7.964;2023-09-07T02:10:22;100326.59;;;19.43;49.86
29215;BME280;16252;49.816;7.964;2023-09-07T02:12:48;100311.84;;;19.30;50.10
29215;BME280;16252;49.816;7.964;2023-09-07T02:15:14;100338.66;;;19.41;50.19
29215;BME280;16252;49.816;7.964;2023-09-07T02:17:39;100316.72;;;19.26;50.17
29215;BME280;16252;49.816;7.964;2023-09-07T02:20:05;100338.44;;;19.26;50.42
29215;BME280;16252;49.816;7.964;2023-09-07T02:22:35;100311.63;;;19.15;50.24
29215;BME280;16252;49.816;7.964;2023-09-07T02:25:01;100343.53;;;19.29;50.30
29215;BME280;16252;49.816;7.964;2023-09-07T02:27:26;100336.75;;;19.25;50.26
29215;BME280;16252;49.816;7.964;2023-09-07T02:29:51;100341.16;;;19.26;50.52
29215;BME280;16252;49.816;7.964;2023-09-07T02:32:16;100321.63;;;19.14;50.55
29215;BME280;16252;49.816;7.964;2023-09-07T02:34:42;100331.31;;;19.17;50.37
29215;BME280;16252;49.816;7.964;2023-09-07T02:37:08;100339.59;;;19.15;50.60
29215;BME280;16252;49.816;7.964;2023-09-07T02:39:33;100324.84;;;19.10;50.85
29215;BME280;16252;49.816;7.964;2023-09-07T02:41:59;100313.09;;;19.01;50.80
29215;BME280;16252;49.816;7.964;2023-09-07T02:44:24;100307.16;;;18.97;51.03
29215;BME280;16252;49.816;7.964;2023-09-07T02:46:49;100323.31;;;19.07;50.64
29215;BME280;16252;49.816;7.964;2023-09-07T02:49:14;100313.91;;;18.93;50.87
29215;BME280;16252;49.816;7.964;2023-09-07T02:51:40;100311.19;;;18.85;50.75
29215;BME280;16252;49.816;7.964;2023-09-07T02:54:05;100303.72;;;18.79;50.92
29215;BME280;16252;49.816;7.964;2023-09-07T02:56:31;100296.88;;;18.75;51.02
29215;BME280;16252;49.816;7.964;2023-09-07T02:58:56;100357.38;;;19.10;51.23
29215;BME280;16252;49.816;7.964;2023-09-07T03:01:21;100323.59;;;18.96;51.29
29215;BME280;16252;49.816;7.964;2023-09-07T03:03:47;100294.88;;;18.77;51.51
29215;BME280;16252;49.816;7.964;2023-09-07T03:06:13;100309.66;;;18.82;51.16
29215;BME280;16252;49.816;7.964;2023-09-07T03:08:39;100311.19;;;18.85;51.43
29215;BME280;16252;49.816;7.964;2023-09-07T03:11:06;100336.31;;;19.03;51.50
29215;BME280;16252;49.816;7.964;2023-09-07T03:13:31;100309.28;;;18.77;51.55
29215;BME280;16252;49.816;7.964;2023-09-07T03:15:57;100347.84;;;18.97;51.45
29215;BME280;16252;49.816;7.964;2023-09-07T03:18:22;100317.28;;;18.79;51.95
29215;BME280;16252;49.816;7.964;2023-09-07T03:20:49;100307.03;;;18.73;51.58
29215;BME280;16252;49.816;7.964;2023-09-07T03:23:14;100323.00;;;18.76;52.01
29215;BME280;16252;49.816;7.964;2023-09-07T03:25:39;100337.59;;;18.83;51.68
29215;BME280;16252;49.816;7.964;2023-09-07T03:28:05;100304.97;;;18.67;51.69
29215;BME280;16252;49.816;7.964;2023-09-07T03:30:30;100313.63;;;18.70;52.00
29215;BME280;16252;49.816;7.964;2023-09-07T03:32:55;100312.25;;;18.66;51.82
29215;BME280;16252;49.816;7.964;2023-09-07T03:35:21;100294.72;;;18.52;51.93
29215;BME280;16252;49.816;7.964;2023-09-07T03:37:49;100293.03;;;18.51;52.19
29215;BME280;16252;49.816;7.964;2023-09-07T03:40:14;100328.00;;;18.71;51.88
29215;BME280;16252;49.816;7.964;2023-09-07T03:42:40;100320.19;;;18.59;51.83
29215;BME280;16252;49.816;7.964;2023-09-07T03:45:05;100314.41;;;18.54;51.75
29215;BME280;16252;49.816;7.964;2023-09-07T03:47:31;100290.91;;;18.37;51.55
29215;BME280;16252;49.816;7.964;2023-09-07T03:49:56;100333.03;;;18.57;51.62
29215;BME280;16252;49.816;7.964;2023-09-07T03:52:22;100329.63;;;18.55;51.72
29215;BME280;16252;49.816;7.964;2023-09-07T03:54:50;100337.25;;;18.52;51.94
29215;BME280;16252;49.816;7.964;2023-09-07T03:57:17;100326.38;;;18.44;51.53
29215;BME280;16252;49.816;7.964;2023-09-07T03:59:42;100301.03;;;18.27;51.75
29215;BME280;16252;49.816;7.964;2023-09-07T04:02:07;100300.50;;;18.23;51.66
29215;BME280;16252;49.816;7.964;2023-09-07T04:04:33;100281.47;;;18.15;51.56
29215;BME280;16252;49.816;7.964;2023-09-07T04:06:58;100278.94;;;18.13;51.65
29215;BME280;16252;49.816;7.964;2023-09-07T04:09:23;100307.97;;;18.29;51.72
29215;BME280;16252;49.816;7.964;2023-09-07T04:11:48;100315.16;;;18.38;51.78
29215;BME280;16252;49.816;7.964;2023-09-07T04:14:14;100335.47;;;18.42;51.80
29215;BME280;16252;49.816;7.964;2023-09-07T04:16:39;100311.72;;;18.28;51.85
29215;BME280;16252;49.816;7.964;2023-09-07T04:19:04;100298.28;;;18.18;51.75
29215;BME280;16252;49.816;7.964;2023-09-07T04:21:30;100263.22;;;17.91;51.69
29215;BME280;16252;49.816;7.964;2023-09-07T04:23:55;100312.78;;;18.17;52.09
29215;BME280;16252;49.816;7.964;2023-09-07T04:26:20;100297.81;;;18.05;52.05
29215;BME280;16252;49.816;7.964;2023-09-07T04:28:46;100296.13;;;18.04;52.01
29215;BME280;16252;49.816;7.964;2023-09-07T04:31:11;100276.38;;;17.86;51.42
29215;BME280;16252;49.816;7.964;2023-09-07T04:33:36;100314.94;;;18.06;51.63
29215;BME280;16252;49.816;7.964;2023-09-07T04:36:11;100352.00;;;18.31;51.82
29215;BME280;16252;49.816;7.964;2023-09-07T04:38:37;100340.75;;;18.18;51.97
29215;BME280;16252;49.816;7.964;2023-09-07T04:41:07;100315.22;;;18.03;52.03
29215;BME280;16252;49.816;7.964;2023-09-07T04:43:33;100327.22;;;18.00;52.06
29215;BME280;16252;49.816;7.964;2023-09-07T04:45:58;100288.28;;;17.75;52.13
29215;BME280;16252;49.816;7.964;2023-09-07T04:48:23;100329.53;;;17.95;52.02
29215;BME280;16252;49.816;7.964;2023-09-07T04:50:56;100300.94;;;17.74;52.06
29215;BME280;16252;49.816;7.964;2023-09-07T04:53:22;100293.59;;;17.67;52.14
29215;BME280;16252;49.816;7.964;2023-09-07T04:55:47;100339.53;;;17.94;51.75
29215;BME280;16252;49.816;7.964;2023-09-07T04:58:12;100339.31;;;17.88;52.36
29215;BME280;16252;49.816;7.964;2023-09-07T05:00:37;100333.22;;;17.86;52.37
29215;BME280;16252;49.816;7.964;2023-09-07T05:03:03;100335.22;;;17.84;52.06
29215;BME280;16252;49.816;7.964;2023-09-07T05:05:28;100303.34;;;17.60;52.07
29215;BME280;16252;49.816;7.964;2023-09-07T05:07:53;100320.38;;;17.70;52.62
29215;BME280;16252;49.816;7.964;2023-09-07T05:10:19;100338.94;;;17.83;52.61
29215;BME280;16252;49.816;7.964;2023-09-07T05:12:44;100344.34;;;17.83;52.74
29215;BME280;16252;49.816;7.964;2023-09-07T05:15:09;100290.44;;;17.53;52.58
29215;BME280;16252;49.816;7.964;2023-09-07T05:17:35;100339.09;;;17.81;52.51
29215;BME280;16252;49.816;7.964;2023-09-07T05:20:00;100356.09;;;17.91;52.39
29215;BME280;16252;49.816;7.964;2023-09-07T05:22:26;100340.09;;;17.80;52.67
29215;BME280;16252;49.816;7.964;2023-09-07T05:24:51;100281.69;;;17.42;52.71
29215;BME280;16252;49.816;7.964;2023-09-07T05:27:16;100320.50;;;17.68;52.91
29215;BME280;16252;49.816;7.964;2023-09-07T05:29:42;100353.53;;;17.90;52.79
29215;BME280;16252;49.816;7.964;2023-09-07T05:32:07;100352.88;;;17.88;52.87
29215;BME280;16252;49.816;7.964;2023-09-07T05:34:34;100346.47;;;17.79;53.50
29215;BME280;16252;49.816;7.964;2023-09-07T05:36:59;100358.09;;;17.89;53.13
29215;BME280;16252;49.816;7.964;2023-09-07T05:39:24;100326.75;;;17.69;53.17
29215;BME280;16252;49.816;7.964;2023-09-07T05:41:50;100310.59;;;17.59;53.23
29215;BME280;16252;49.816;7.964;2023-09-07T05:44:15;100342.41;;;17.75;53.17
29215;BME280;16252;49.816;7.964;2023-09-07T05:46:40;100379.53;;;18.01;53.31
29215;BME280;16252;49.816;7.964;2023-09-07T05:49:05;100344.22;;;17.74;53.65
29215;BME280;16252;49.816;7.964;2023-09-07T05:51:31;100353.84;;;17.87;53.93
29215;BME280;16252;49.816;7.964;2023-09-07T05:53:56;100380.38;;;18.01;53.58
29215;BME280;16252;49.816;7.964;2023-09-07T05:56:22;100358.28;;;17.88;53.63
29215;BME280;16252;49.816;7.964;2023-09-07T05:58:47;100348.28;;;17.88;53.97
29215;BME280;16252;49.816;7.964;2023-09-07T06:01:12;100323.47;;;17.75;53.54
29215;BME280;16252;49.816;7.964;2023-09-07T06:03:38;100353.63;;;17.98;53.91
29215;BME280;16252;49.816;7.964;2023-09-07T06:06:04;100402.09;;;18.27;54.10
29215;BME280;16252;49.816;7.964;2023-09-07T06:08:29;100369.28;;;18.12;53.58
29215;BME280;16252;49.816;7.964;2023-09-07T06:10:55;100330.41;;;17.95;53.98
29215;BME280;16252;49.816;7.964;2023-09-07T06:13:20;100354.75;;;18.13;54.19
29215;BME280;16252;49.816;7.964;2023-09-07T06:15:45;100372.66;;;18.32;54.17
29215;BME280;16252;49.816;7.964;2023-09-07T06:18:11;100347.16;;;18.17;54.24
29215;BME280;16252;49.816;7.964;2023-09-07T06:20:36;100357.06;;;18.26;54.08
29215;BME280;16252;49.816;7.964;2023-09-07T06:23:02;100364.75;;;18.39;54.19
29215;BME280;16252;49.816;7.964;2023-09-07T06:25:27;100366.34;;;18.50;54.16
29215;BME280;16252;49.816;7.964;2023-09-07T06:27:52;100378.41;;;18.55;54.24
29215;BME280;16252;49.816;7.964;2023-09-07T06:30:18;100376.25;;;18.59;54.31
29215;BME280;16252;49.816;7.964;2023-09-07T06:32:43;100372.00;;;18.56;54.40
29215;BME280;16252;49.816;7.964;2023-09-07T06:35:09;100382.56;;;18.68;54.52
29215;BME280;16252;49.816;7.964;2023-09-07T06:37:35;100383.59;;;18.75;55.16
29215;BME280;16252;49.816;7.964;2023-09-07T06:40:02;100354.38;;;18.60;54.80
29215;BME280;16252;49.816;7.964;2023-09-07T06:42:29;100375.03;;;18.79;54.66
29215;BME280;16252;49.816;7.964;2023-09-07T06:44:56;100335.41;;;18.60;55.01
29215;BME280;16252;49.816;7.964;2023-09-07T06:47:21;100329.38;;;18.67;55.39
29215;BME280;16252;49.816;7.964;2023-09-07T06:49:46;100382.91;;;18.99;54.83
29215;BME280;16252;49.816;7.964;2023-09-07T06:52:11;100396.03;;;19.12;55.39
29215;BME280;16252;49.816;7.964;2023-09-07T06:54:37;100391.47;;;19.12;55.07
29215;BME280;16252;49.816;7.964;2023-09-07T06:57:06;100420.53;;;19.36;55.23
29215;BME280;16252;49.816;7.964;2023-09-07T06:59:33;100377.72;;;19.14;55.05
29215;BME280;16252;49.816;7.964;2023-09-07T07:01:58;100386.56;;;19.24;55.26
29215;BME280;16252;49.816;7.964;2023-09-07T07:04:25;100419.06;;;19.50;55.04
29215;BME280;16252;49.816;7.964;2023-09-07T07:06:50;100358.25;;;19.18;55.58
29215;BME280;16252;49.816;7.964;2023-09-07T07:09:15;100354.34;;;19.21;55.12
29215;BME280;16252;49.816;7.964;2023-09-07T07:11:40;100415.88;;;19.63;55.37
29215;BME280;16252;49.816;7.964;2023-09-07T07:14:08;100397.72;;;19.63;55.19
29215;BME280;16252;49.816;7.964;2023-09-07T07:16:34;100349.50;;;19.41;55.12
29215;BME280;16252;49.816;7.964;2023-09-07T07:18:59;100394.41;;;19.78;55.20
29215;BME280;16252;49.816;7.964;2023-09-07T07:21:24;100409.88;;;19.94;55.13
29215;BME280;16252;49.816;7.964;2023-09-07T07:23:50;100396.28;;;19.94;55.35
29215;BME280;16252;49.816;7.964;2023-09-07T07:26:15;100387.44;;;20.00;55.21
29215;BME280;16252;49.816;7.964;2023-09-07T07:28:40;100410.72;;;20.19;55.00
29215;BME280;16252;49.816;7.964;2023-09-07T07:31:11;100365.56;;;20.01;55.30
29215;BME280;16252;49.816;7.964;2023-09-07T07:33:36;100399.00;;;20.26;54.93
29215;BME280;16252;49.816;7.964;2023-09-07T07:36:03;100361.50;;;20.13;55.03
29215;BME280;16252;49.816;7.964;2023-09-07T07:38:28;100389.16;;;20.42;54.92
29215;BME280;16252;49.816;7.964;2023-09-07T07:40:54;100382.84;;;20.49;54.96
29215;BME280;16252;49.816;7.964;2023-09-07T07:43:19;100380.81;;;20.51;55.23
29215;BME280;16252;49.816;7.964;2023-09-07T07:45:44;100366.69;;;20.48;54.71
29215;BME280;16252;49.816;7.964;2023-09-07T07:48:09;100375.22;;;20.61;54.88
29215;BME280;16252;49.816;7.964;2023-09-07T07:50:38;100423.53;;;21.07;54.82
29215;BME280;16252;49.816;7.964;2023-09-07T07:53:05;100338.69;;;20.55;54.94
29215;BME280;16252;49.816;7.964;2023-09-07T07:55:34;100414.81;;;21.19;54.82
29215;BME280;16252;49.816;7.964;2023-09-07T07:58:04;100390.88;;;21.15;54.82
29215;BME280;16252;49.816;7.964;2023-09-07T08:00:30;100423.94;;;21.43;54.97
29215;BME280;16252;49.816;7.964;2023-09-07T08:02:56;100408.59;;;21.42;54.70
29215;BME280;16252;49.816;7.964;2023-09-07T08:05:21;100388.72;;;21.41;54.88
29215;BME280;16252;49.816;7.964;2023-09-07T08:07:46;100380.38;;;21.43;55.07
29215;BME280;16252;49.816;7.964;2023-09-07T08:10:12;100414.06;;;21.73;54.53
29215;BME280;16252;49.816;7.964;2023-09-07T08:12:37;100351.13;;;21.45;54.77
29215;BME280;16252;49.816;7.964;2023-09-07T08:15:03;100355.28;;;21.56;54.75
29215;BME280;16252;49.816;7.964;2023-09-07T08:17:29;100356.69;;;21.75;54.47
29215;BME280;16252;49.816;7.964;2023-09-07T08:19:54;100408.16;;;22.16;54.31
29215;BME280;16252;49.816;7.964;2023-09-07T08:22:22;100401.50;;;22.18;54.03
29215;BME280;16252;49.816;7.964;2023-09-07T08:24:47;100411.22;;;22.36;54.30
29215;BME280;16252;49.816;7.964;2023-09-07T08:27:13;100360.97;;;22.15;53.87
29215;BME280;16252;49.816;7.964;2023-09-07T08:29:44;100383.13;;;22.35;53.84
29215;BME280;16252;49.816;7.964;2023-09-07T08:32:13;100391.47;;;22.57;53.58
29215;BME280;16252;49.816;7.964;2023-09-07T08:34:39;100391.00;;;22.68;53.58
29215;BME280;16252;49.816;7.964;2023-09-07T08:37:05;100347.34;;;22.53;53.33
29215;BME280;16252;49.816;7.964;2023-09-07T08:39:33;100388.94;;;22.85;53.08
29215;BME280;16252;49.816;7.964;2023-09-07T08:41:59;100363.16;;;22.87;53.10
29215;BME280;16252;49.816;7.964;2023-09-07T08:44:26;100350.84;;;22.91;53.22
29215;BME280;16252;49.816;7.964;2023-09-07T08:46:52;100388.28;;;23.27;52.92
29215;BME280;16252;49.816;7.964;2023-09-07T08:49:18;100386.09;;;23.38;53.01
29215;BME280;16252;49.816;7.964;2023-09-07T08:51:48;100381.63;;;23.51;52.41
29215;BME280;16252;49.816;7.964;2023-09-07T08:54:13;100399.09;;;23.72;52.48
29215;BME280;16252;49.816;7.964;2023-09-07T08:56:39;100392.97;;;23.85;52.77
29215;BME280;16252;49.816;7.964;2023-09-07T08:59:04;100370.53;;;23.89;52.23
29215;BME280;16252;49.816;7.964;2023-09-07T09:01:30;100386.47;;;24.07;52.20
29215;BME280;16252;49.816;7.964;2023-09-07T09:03:58;100407.13;;;24.38;52.38
29215;BME280;16252;49.816;7.964;2023-09-07T09:06:24;100382.75;;;24.43;52.70
29215;BME280;16252;49.816;7.964;2023-09-07T09:08:55;100373.13;;;24.75;52.51
29215;BME280;16252;49.816;7.964;2023-09-07T09:11:22;100393.91;;;25.39;53.37
29215;BME280;16252;49.816;7.964;2023-09-07T09:13:49;100385.09;;;26.19;54.39
29215;BME280;16252;49.816;7.964;2023-09-07T09:16:14;100380.16;;;27.07;52.35
29215;BME280;16252;49.816;7.964;2023-09-07T09:18:52;100388.25;;;28.17;52.26
29215;BME280;16252;49.816;7.964;2023-09-07T09:21:19;100368.31;;;29.15;50.03
29215;BME280;16252;49.816;7.964;2023-09-07T09:23:47;100372.81;;;30.31;48.07
29215;BME280;16252;49.816;7.964;2023-09-07T09:26:13;100386.09;;;31.40;46.77
29215;BME280;16252;49.816;7.964;2023-09-07T09:28:39;100389.78;;;32.48;45.37
29215;BME280;16252;49.816;7.964;2023-09-07T09:31:04;100377.13;;;33.30;43.28
29215;BME280;16252;49.816;7.964;2023-09-07T09:33:32;100378.38;;;34.21;42.79
29215;BME280;16252;49.816;7.964;2023-09-07T09:36:00;100358.91;;;34.90;40.40
29215;BME280;16252;49.816;7.964;2023-09-07T09:38:26;100370.91;;;35.69;39.36
29215;BME280;16252;49.816;7.964;2023-09-07T09:40:52;100401.34;;;36.48;37.84
29215;BME280;16252;49.816;7.964;2023-09-07T09:43:19;100377.88;;;37.00;37.00
29215;BME280;16252;49.816;7.964;2023-09-07T09:45:45;100383.25;;;37.56;36.73
29215;BME280;16252;49.816;7.964;2023-09-07T09:48:10;100376.75;;;38.10;35.32
29215;BME280;16252;49.816;7.964;2023-09-07T09:50:36;100373.28;;;38.58;34.55
29215;BME280;16252;49.816;7.964;2023-09-07T09:53:06;100386.66;;;39.14;33.58
29215;BME280;16252;49.816;7.964;2023-09-07T09:55:32;100373.88;;;39.51;32.31
29215;BME280;16252;49.816;7.964;2023-09-07T09:57:58;100366.25;;;39.76;32.59
29215;BME280;16252;49.816;7.964;2023-09-07T10:00:23;100372.97;;;40.13;30.85
29215;BME280;16252;49.816;7.964;2023-09-07T10:03:09;100380.78;;;40.48;35.13
29215;BME280;16252;49.816;7.964;2023-09-07T10:05:38;100363.28;;;40.70;31.03
29215;BME280;16252;49.816;7.964;2023-09-07T10:08:13;100357.88;;;41.02;31.64
29215;BME280;16252;49.816;7.964;2023-09-07T10:10:42;100344.91;;;41.20;29.99
29215;BME280;16252;49.816;7.964;2023-09-07T10:13:08;100355.25;;;41.47;28.92
29215;BME280;16252;49.816;7.964;2023-09-07T10:15:33;100318.66;;;41.52;28.35
29215;BME280;16252;49.816;7.964;2023-09-07T10:18:10;100315.88;;;41.74;28.37
29215;BME280;16252;49.816;7.964;2023-09-07T10:20:56;100354.91;;;42.21;28.84
29215;BME280;16252;49.816;7.964;2023-09-07T10:23:35;100359.84;;;42.38;28.35
29215;BME280;16252;49.816;7.964;2023-09-07T10:26:03;100327.13;;;42.42;27.62
29215;BME280;16252;49.816;7.964;2023-09-07T10:28:31;100361.81;;;42.69;27.01
29215;BME280;16252;49.816;7.964;2023-09-07T10:31:18;100338.66;;;42.72;28.01
29215;BME280;16252;49.816;7.964;2023-09-07T10:33:44;100307.50;;;42.59;26.31
29215;BME280;16252;49.816;7.964;2023-09-07T10:36:21;100339.91;;;42.88;27.39
29215;BME280;16252;49.816;7.964;2023-09-07T10:38:46;100331.63;;;42.92;25.94
29215;BME280;16252;49.816;7.964;2023-09-07T10:41:12;100328.19;;;43.03;25.74
29215;BME280;16252;49.816;7.964;2023-09-07T10:43:49;100311.16;;;43.00;25.88
29215;BME280;16252;49.816;7.964;2023-09-07T10:46:14;100307.16;;;43.01;25.20
29215;BME280;16252;49.816;7.964;2023-09-07T10:48:43;100335.72;;;43.25;24.52
29215;BME280;16252;49.816;7.964;2023-09-07T10:51:08;100307.72;;;43.20;24.50
29215;BME280;16252;49.816;7.964;2023-09-07T10:53:33;100312.53;;;43.28;24.47
29215;BME280;16252;49.816;7.964;2023-09-07T10:56:02;100307.88;;;43.33;24.77
29215;BME280;16252;49.816;7.964;2023-09-07T11:00:55;100305.91;;;43.42;24.40
29215;BME280;16252;49.816;7.964;2023-09-07T11:03:21;100310.56;;;43.46;23.73
29215;BME280;16252;49.816;7.964;2023-09-07T11:05:47;100305.25;;;43.45;24.30
29215;BME280;16252;49.816;7.964;2023-09-07T11:08:13;100292.66;;;43.42;23.41
29215;BME280;16252;49.816;7.964;2023-09-07T11:10:39;100299.78;;;43.48;23.73
29215;BME280;16252;49.816;7.964;2023-09-07T11:13:05;100292.84;;;43.46;22.88
29215;BME280;16252;49.816;7.964;2023-09-07T11:15:31;100279.91;;;43.36;23.37
29215;BME280;16252;49.816;7.964;2023-09-07T11:17:57;100292.31;;;43.18;23.19
29215;BME280;16252;49.816;7.964;2023-09-07T11:20:23;100319.25;;;43.01;23.02
29215;BME280;16252;49.816;7.964;2023-09-07T11:22:48;100280.69;;;42.22;23.28
29215;BME280;16252;49.816;7.964;2023-09-07T11:25:14;100275.16;;;41.63;23.39
29215;BME280;16252;49.816;7.964;2023-09-07T11:27:40;100312.91;;;41.21;23.56
29215;BME280;16252;49.816;7.964;2023-09-07T11:30:05;100298.97;;;40.60;23.80
29215;BME280;16252;49.816;7.964;2023-09-07T11:32:36;100304.34;;;40.10;24.42
29215;BME280;16252;49.816;7.964;2023-09-07T11:35:02;100294.97;;;39.49;24.61
29215;BME280;16252;49.816;7.964;2023-09-07T11:37:32;100278.53;;;38.80;25.15
29215;BME280;16252;49.816;7.964;2023-09-07T11:39:58;100282.09;;;38.33;25.22
29215;BME280;16252;49.816;7.964;2023-09-07T11:42:23;100288.28;;;37.95;25.43
29215;BME280;16252;49.816;7.964;2023-09-07T11:44:49;100287.25;;;37.47;26.04
29215;BME280;16252;49.816;7.964;2023-09-07T11:47:14;100276.06;;;37.02;26.08
29215;BME280;16252;49.816;7.964;2023-09-07T11:49:39;100293.16;;;36.80;26.72
29215;BME280;16252;49.816;7.964;2023-09-07T11:52:05;100249.25;;;36.21;27.26
29215;BME280;16252;49.816;7.964;2023-09-07T11:54:30;100237.88;;;35.92;27.02
29215;BME280;16252;49.816;7.964;2023-09-07T11:56:55;100244.28;;;35.72;27.42
29215;BME280;16252;49.816;7.964;2023-09-07T11:59:21;100264.59;;;35.62;27.53
29215;BME280;16252;49.816;7.964;2023-09-07T12:01:46;100248.97;;;35.30;27.73
29215;BME280;16252;49.816;7.964;2023-09-07T12:04:11;100238.88;;;35.09;27.86
29215;BME280;16252;49.816;7.964;2023-09-07T12:06:37;100256.66;;;35.08;28.03
29215;BME280;16252;49.816;7.964;2023-09-07T12:09:04;100288.63;;;35.05;28.42
29215;BME280;16252;49.816;7.964;2023-09-07T12:11:30;100265.19;;;34.81;28.23
29215;BME280;16252;49.816;7.964;2023-09-07T12:13:59;100236.38;;;34.44;28.59
29215;BME280;16252;49.816;7.964;2023-09-07T12:16:27;100237.72;;;34.37;28.96
29215;BME280;16252;49.816;7.964;2023-09-07T12:18:53;100238.44;;;34.17;29.34
29215;BME280;16252;49.816;7.964;2023-09-07T12:21:19;100246.16;;;34.09;29.44
29215;BME280;16252;49.816;7.964;2023-09-07T12:23:45;100247.16;;;33.98;29.65
29215;BME280;16252;49.816;7.964;2023-09-07T12:26:10;100225.06;;;33.76;29.66
29215;BME280;16252;49.816;7.964;2023-09-07T12:28:35;100255.25;;;33.73;29.65
29215;BME280;16252;49.816;7.964;2023-09-07T12:31:01;100262.47;;;33.69;29.86
29215;BME280;16252;49.816;7.964;2023-09-07T12:33:26;100256.25;;;33.56;29.89
29215;BME280;16252;49.816;7.964;2023-09-07T12:35:54;100219.03;;;33.25;29.77
29215;BME280;16252;49.816;7.964;2023-09-07T12:38:20;100227.25;;;33.15;30.09
29215;BME280;16252;49.816;7.964;2023-09-07T12:40:47;100235.88;;;33.18;30.07
29215;BME280;16252;49.816;7.964;2023-09-07T12:43:12;100238.34;;;33.15;30.10
29215;BME280;16252;49.816;7.964;2023-09-07T12:45:38;100262.22;;;33.21;30.12
29215;BME280;16252;49.816;7.964;2023-09-07T12:48:03;100232.69;;;33.05;30.42